sensor_id;sensor_type;location;lat;lon;timestamp;P1;durP1;ratioP1;P2;durP2;ratioP2
74347;SDS011;62778;50.406;10.008;2023-02-13T00:00:16;9.53;;;3.70;;
74347;SDS011;62778;50.406;10.008;2023-02-13T00:01:13;9.48;;;3.80;;
74347;SDS011;62778;50.406;10.008;2023-02-13T00:02:09;10.10;;;4.43;;
74347;SDS011;62778;50.406;10.008;2023-02-13T00:03:04;9.68;;;3.90;;
74347;SDS011;62778;50.406;10.008;2023-02-13T00:04:00;10.40;;;3.97;;
74347;SDS011;62778;50.406;10.008;2023-02-13T00:04:55;9.57;;;4.30;;
74347;SDS011;62778;50.406;10.008;2023-02-13T00:05:50;9.75;;;4.13;;
74347;SDS011;62778;50.406;10.008;2023-02-13T00:06:46;10.77;;;4.60;;
74347;SDS011;62778;50.406;10.008;2023-02-13T00:07:44;10.38;;;4.57;;
74347;SDS011;62778;50.406;10.008;2023-02-13T00:08:39;9.27;;;3.60;;
74347;SDS011;62778;50.406;10.008;2023-02-13T00:09:34;11.90;;;4.27;;
74347;SDS011;62778;50.406;10.008;2023-02-13T00:10:30;9.80;;;4.23;;
74347;SDS011;62778;50.406;10.008;2023-02-13T00:11:25;9.55;;;4.07;;
74347;SDS011;62778;50.406;10.008;2023-02-13T00:12:20;9.93;;;4.10;;
74347;SDS011;62778;50.406;10.008;2023-02-13T00:13:16;13.73;;;4.97;;
74347;SDS011;62778;50.406;10.008;2023-02-13T00:14:11;12.73;;;5.20;;
74347;SDS011;62778;50.406;10.008;2023-02-13T00:15:07;10.15;;;4.55;;
74347;SDS011;62778;50.406;10.008;2023-02-13T00:16:03;10.98;;;4.47;;
74347;SDS011;62778;50.406;10.008;2023-02-13T00:16:59;11.23;;;4.43;;
74347;SDS011;62778;50.406;10.008;2023-02-13T00:17:54;11.17;;;5.10;;
74347;SDS011;62778;50.406;10.008;2023-02-13T00:18:49;10.75;;;4.22;;
74347;SDS011;62778;50.406;10.008;2023-02-13T00:19:44;10.60;;;4.30;;
74347;SDS011;62778;50.406;10.008;2023-02-13T00:20:40;9.57;;;3.93;;
74347;SDS011;62778;50.406;10.008;2023-02-13T00:21:35;8.10;;;3.40;;
74347;SDS011;62778;50.406;10.008;2023-02-13T00:22:33;9.33;;;3.73;;
74347;SDS011;62778;50.406;10.008;2023-02-13T00:23:30;10.07;;;4.20;;
74347;SDS011;62778;50.406;10.008;2023-02-13T00:24:26;9.00;;;4.00;;
74347;SDS011;62778;50.406;10.008;2023-02-13T00:25:21;10.50;;;5.13;;
74347;SDS011;62778;50.406;10.008;2023-02-13T00:26:17;9.50;;;4.20;;
74347;SDS011;62778;50.406;10.008;2023-02-13T00:27:12;11.57;;;4.47;;
74347;SDS011;62778;50.406;10.008;2023-02-13T00:28:08;12.50;;;4.07;;
74347;SDS011;62778;50.406;10.008;2023-02-13T00:29:03;13.50;;;4.67;;
74347;SDS011;62778;50.406;10.008;2023-02-13T00:29:58;12.20;;;4.65;;
74347;SDS011;62778;50.406;10.008;2023-02-13T00:30:53;10.00;;;4.30;;
74347;SDS011;62778;50.406;10.008;2023-02-13T00:31:56;8.75;;;3.30;;
74347;SDS011;62778;50.406;10.008;2023-02-13T00:32:52;10.00;;;4.07;;
74347;SDS011;62778;50.406;10.008;2023-02-13T00:33:47;10.10;;;4.17;;
74347;SDS011;62778;50.406;10.008;2023-02-13T00:34:42;14.60;;;5.03;;
74347;SDS011;62778;50.406;10.008;2023-02-13T00:35:38;15.17;;;5.33;;
74347;SDS011;62778;50.406;10.008;2023-02-13T00:36:33;12.60;;;4.63;;
74347;SDS011;62778;50.406;10.008;2023-02-13T00:37:28;10.37;;;4.27;;
74347;SDS011;62778;50.406;10.008;2023-02-13T00:38:24;16.70;;;4.70;;
74347;SDS011;62778;50.406;10.008;2023-02-13T00:39:19;11.07;;;4.00;;
74347;SDS011;62778;50.406;10.008;2023-02-13T00:40:15;9.57;;;4.00;;
74347;SDS011;62778;50.406;10.008;2023-02-13T00:41:10;11.07;;;4.38;;
74347;SDS011;62778;50.406;10.008;2023-02-13T00:42:06;9.73;;;3.90;;
74347;SDS011;62778;50.406;10.008;2023-02-13T00:43:02;10.20;;;4.13;;
74347;SDS011;62778;50.406;10.008;2023-02-13T00:43:57;10.90;;;4.20;;
74347;SDS011;62778;50.406;10.008;2023-02-13T00:44:52;15.77;;;4.40;;
74347;SDS011;62778;50.406;10.008;2023-02-13T00:45:48;10.93;;;4.32;;
74347;SDS011;62778;50.406;10.008;2023-02-13T00:46:43;16.57;;;5.13;;
74347;SDS011;62778;50.406;10.008;2023-02-13T00:47:39;13.67;;;4.13;;
74347;SDS011;62778;50.406;10.008;2023-02-13T00:48:36;9.80;;;4.00;;
74347;SDS011;62778;50.406;10.008;2023-02-13T00:49:32;10.85;;;3.97;;
74347;SDS011;62778;50.406;10.008;2023-02-13T00:50:27;9.25;;;3.28;;
74347;SDS011;62778;50.406;10.008;2023-02-13T00:51:22;13.53;;;4.30;;
74347;SDS011;62778;50.406;10.008;2023-02-13T00:52:18;12.10;;;4.10;;
74347;SDS011;62778;50.406;10.008;2023-02-13T00:53:13;8.27;;;3.30;;
74347;SDS011;62778;50.406;10.008;2023-02-13T00:54:08;11.33;;;4.03;;
74347;SDS011;62778;50.406;10.008;2023-02-13T00:55:04;11.45;;;3.83;;
74347;SDS011;62778;50.406;10.008;2023-02-13T00:56:00;9.63;;;4.10;;
74347;SDS011;62778;50.406;10.008;2023-02-13T00:56:55;10.68;;;3.78;;
74347;SDS011;62778;50.406;10.008;2023-02-13T00:57:51;11.00;;;4.00;;
74347;SDS011;62778;50.406;10.008;2023-02-13T00:58:46;9.35;;;3.70;;
74347;SDS011;62778;50.406;10.008;2023-02-13T00:59:41;8.00;;;3.40;;
74347;SDS011;62778;50.406;10.008;2023-02-13T01:00:37;8.60;;;3.80;;
74347;SDS011;62778;50.406;10.008;2023-02-13T01:01:34;11.27;;;3.67;;
74347;SDS011;62778;50.406;10.008;2023-02-13T01:02:29;10.73;;;3.60;;
74347;SDS011;62778;50.406;10.008;2023-02-13T01:03:24;9.50;;;3.60;;
74347;SDS011;62778;50.406;10.008;2023-02-13T01:04:20;8.93;;;3.25;;
74347;SDS011;62778;50.406;10.008;2023-02-13T01:05:15;10.50;;;4.30;;
74347;SDS011;62778;50.406;10.008;2023-02-13T01:06:10;10.27;;;3.67;;
74347;SDS011;62778;50.406;10.008;2023-02-13T01:07:06;11.27;;;4.17;;
74347;SDS011;62778;50.406;10.008;2023-02-13T01:08:01;10.93;;;4.28;;
74347;SDS011;62778;50.406;10.008;2023-02-13T01:08:56;8.80;;;3.63;;
74347;SDS011;62778;50.406;10.008;2023-02-13T01:09:52;9.70;;;3.47;;
74347;SDS011;62778;50.406;10.008;2023-02-13T01:10:47;9.37;;;3.90;;
74347;SDS011;62778;50.406;10.008;2023-02-13T01:11:42;8.15;;;3.40;;
74347;SDS011;62778;50.406;10.008;2023-02-13T01:12:38;8.60;;;4.00;;
74347;SDS011;62778;50.406;10.008;2023-02-13T01:13:33;11.93;;;4.43;;
74347;SDS011;62778;50.406;10.008;2023-02-13T01:14:29;8.57;;;3.60;;
74347;SDS011;62778;50.406;10.008;2023-02-13T01:15:24;10.83;;;3.60;;
74347;SDS011;62778;50.406;10.008;2023-02-13T01:16:19;10.03;;;4.87;;
74347;SDS011;62778;50.406;10.008;2023-02-13T01:17:15;13.63;;;4.63;;
74347;SDS011;62778;50.406;10.008;2023-02-13T01:18:17;13.57;;;4.27;;
74347;SDS011;62778;50.406;10.008;2023-02-13T01:19:14;11.80;;;4.25;;
74347;SDS011;62778;50.406;10.008;2023-02-13T01:20:10;9.00;;;3.28;;
74347;SDS011;62778;50.406;10.008;2023-02-13T01:21:07;9.00;;;3.33;;
74347;SDS011;62778;50.406;10.008;2023-02-13T01:22:03;10.80;;;3.85;;
74347;SDS011;62778;50.406;10.008;2023-02-13T01:22:58;12.45;;;4.60;;
74347;SDS011;62778;50.406;10.008;2023-02-13T01:23:53;13.23;;;4.13;;
74347;SDS011;62778;50.406;10.008;2023-02-13T01:24:49;15.73;;;5.00;;
74347;SDS011;62778;50.406;10.008;2023-02-13T01:25:44;11.93;;;3.83;;
74347;SDS011;62778;50.406;10.008;2023-02-13T01:26:39;9.10;;;3.50;;
74347;SDS011;62778;50.406;10.008;2023-02-13T01:27:35;12.13;;;4.18;;
74347;SDS011;62778;50.406;10.008;2023-02-13T01:28:32;11.05;;;4.13;;
74347;SDS011;62778;50.406;10.008;2023-02-13T01:29:28;10.10;;;3.93;;
74347;SDS011;62778;50.406;10.008;2023-02-13T01:30:23;10.82;;;4.05;;
74347;SDS011;62778;50.406;10.008;2023-02-13T01:31:19;10.13;;;4.13;;
74347;SDS011;62778;50.406;10.008;2023-02-13T01:32:15;10.15;;;4.20;;
74347;SDS011;62778;50.406;10.008;2023-02-13T01:33:10;17.97;;;4.47;;
74347;SDS011;62778;50.406;10.008;2023-02-13T01:34:06;12.43;;;4.10;;
74347;SDS011;62778;50.406;10.008;2023-02-13T01:35:01;9.17;;;4.20;;
74347;SDS011;62778;50.406;10.008;2023-02-13T01:35:57;9.82;;;4.00;;
74347;SDS011;62778;50.406;10.008;2023-02-13T01:36:54;9.63;;;3.78;;
74347;SDS011;62778;50.406;10.008;2023-02-13T01:37:49;9.80;;;3.67;;
74347;SDS011;62778;50.406;10.008;2023-02-13T01:38:44;10.30;;;3.92;;
74347;SDS011;62778;50.406;10.008;2023-02-13T01:39:40;9.87;;;3.80;;
74347;SDS011;62778;50.406;10.008;2023-02-13T01:40:35;8.73;;;3.63;;
74347;SDS011;62778;50.406;10.008;2023-02-13T01:41:30;9.17;;;3.50;;
74347;SDS011;62778;50.406;10.008;2023-02-13T01:42:27;9.60;;;3.73;;
74347;SDS011;62778;50.406;10.008;2023-02-13T01:43:41;11.82;;;3.97;;
74347;SDS011;62778;50.406;10.008;2023-02-13T01:45:44;11.07;;;3.42;;
74347;SDS011;62778;50.406;10.008;2023-02-13T01:46:41;10.02;;;4.13;;
74347;SDS011;62778;50.406;10.008;2023-02-13T01:47:39;9.88;;;3.38;;
74347;SDS011;62778;50.406;10.008;2023-02-13T01:48:36;10.60;;;3.90;;
74347;SDS011;62778;50.406;10.008;2023-02-13T01:49:31;9.53;;;3.60;;
74347;SDS011;62778;50.406;10.008;2023-02-13T01:51:32;10.05;;;4.00;;
74347;SDS011;62778;50.406;10.008;2023-02-13T01:52:29;9.93;;;3.60;;
74347;SDS011;62778;50.406;10.008;2023-02-13T01:54:22;9.30;;;3.67;;
74347;SDS011;62778;50.406;10.008;2023-02-13T01:55:25;10.43;;;4.32;;
74347;SDS011;62778;50.406;10.008;2023-02-13T01:57:24;7.95;;;3.50;;
74347;SDS011;62778;50.406;10.008;2023-02-13T01:58:21;10.20;;;3.90;;
74347;SDS011;62778;50.406;10.008;2023-02-13T01:59:20;9.65;;;3.80;;
74347;SDS011;62778;50.406;10.008;2023-02-13T02:00:19;10.70;;;3.80;;
74347;SDS011;62778;50.406;10.008;2023-02-13T02:01:14;8.97;;;3.73;;
74347;SDS011;62778;50.406;10.008;2023-02-13T02:02:10;10.88;;;4.35;;
74347;SDS011;62778;50.406;10.008;2023-02-13T02:03:10;10.33;;;4.03;;
74347;SDS011;62778;50.406;10.008;2023-02-13T02:04:12;9.52;;;4.38;;
74347;SDS011;62778;50.406;10.008;2023-02-13T02:05:10;10.65;;;4.43;;
74347;SDS011;62778;50.406;10.008;2023-02-13T02:06:06;9.45;;;4.15;;
74347;SDS011;62778;50.406;10.008;2023-02-13T02:07:07;9.35;;;4.15;;
74347;SDS011;62778;50.406;10.008;2023-02-13T02:08:07;10.30;;;4.03;;
74347;SDS011;62778;50.406;10.008;2023-02-13T02:09:09;9.75;;;3.80;;
74347;SDS011;62778;50.406;10.008;2023-02-13T02:10:12;10.77;;;4.40;;
74347;SDS011;62778;50.406;10.008;2023-02-13T02:11:12;9.95;;;4.47;;
74347;SDS011;62778;50.406;10.008;2023-02-13T02:13:20;10.93;;;4.50;;
74347;SDS011;62778;50.406;10.008;2023-02-13T02:14:15;10.07;;;4.57;;
74347;SDS011;62778;50.406;10.008;2023-02-13T02:15:11;11.37;;;4.97;;
74347;SDS011;62778;50.406;10.008;2023-02-13T02:16:06;11.77;;;4.77;;
74347;SDS011;62778;50.406;10.008;2023-02-13T02:17:01;11.40;;;4.75;;
74347;SDS011;62778;50.406;10.008;2023-02-13T02:17:57;11.30;;;4.80;;
74347;SDS011;62778;50.406;10.008;2023-02-13T02:18:52;10.60;;;5.03;;
74347;SDS011;62778;50.406;10.008;2023-02-13T02:21:38;10.17;;;4.53;;
74347;SDS011;62778;50.406;10.008;2023-02-13T02:24:58;11.80;;;5.50;;
74347;SDS011;62778;50.406;10.008;2023-02-13T02:32:22;9.63;;;4.30;;
74347;SDS011;62778;50.406;10.008;2023-02-13T02:33:30;11.50;;;4.70;;
74347;SDS011;62778;50.406;10.008;2023-02-13T02:35:59;11.38;;;4.97;;
74347;SDS011;62778;50.406;10.008;2023-02-13T02:37:15;10.85;;;5.32;;
74347;SDS011;62778;50.406;10.008;2023-02-13T02:38:39;10.43;;;4.57;;
74347;SDS011;62778;50.406;10.008;2023-02-13T02:41:07;9.80;;;3.97;;
74347;SDS011;62778;50.406;10.008;2023-02-13T02:48:32;9.68;;;4.53;;
74347;SDS011;62778;50.406;10.008;2023-02-13T02:51:18;9.13;;;4.32;;
74347;SDS011;62778;50.406;10.008;2023-02-13T02:52:17;8.70;;;4.30;;
74347;SDS011;62778;50.406;10.008;2023-02-13T02:53:36;9.90;;;4.80;;
74347;SDS011;62778;50.406;10.008;2023-02-13T02:54:37;9.38;;;4.15;;
74347;SDS011;62778;50.406;10.008;2023-02-13T02:57:21;9.38;;;4.30;;
74347;SDS011;62778;50.406;10.008;2023-02-13T02:58:30;10.25;;;4.60;;
74347;SDS011;62778;50.406;10.008;2023-02-13T02:59:48;11.40;;;5.20;;
74347;SDS011;62778;50.406;10.008;2023-02-13T03:01:05;24.27;;;11.40;;
74347;SDS011;62778;50.406;10.008;2023-02-13T03:02:22;23.02;;;11.73;;
74347;SDS011;62778;50.406;10.008;2023-02-13T03:03:36;20.70;;;10.55;;
74347;SDS011;62778;50.406;10.008;2023-02-13T03:04:51;24.15;;;13.07;;
74347;SDS011;62778;50.406;10.008;2023-02-13T03:07:47;37.53;;;14.57;;
74347;SDS011;62778;50.406;10.008;2023-02-13T03:08:44;43.07;;;13.73;;
74347;SDS011;62778;50.406;10.008;2023-02-13T03:10:00;16.52;;;9.35;;
74347;SDS011;62778;50.406;10.008;2023-02-13T03:11:20;22.25;;;7.85;;
74347;SDS011;62778;50.406;10.008;2023-02-13T03:12:37;26.95;;;7.70;;
74347;SDS011;62778;50.406;10.008;2023-02-13T03:14:08;46.13;;;7.28;;
74347;SDS011;62778;50.406;10.008;2023-02-13T03:15:04;77.65;;;10.32;;
74347;SDS011;62778;50.406;10.008;2023-02-13T03:16:00;41.50;;;6.27;;
74347;SDS011;62778;50.406;10.008;2023-02-13T03:17:15;20.63;;;7.03;;
74347;SDS011;62778;50.406;10.008;2023-02-13T03:18:30;32.35;;;7.43;;
74347;SDS011;62778;50.406;10.008;2023-02-13T03:21:53;32.03;;;6.15;;
74347;SDS011;62778;50.406;10.008;2023-02-13T03:23:13;12.30;;;4.55;;
74347;SDS011;62778;50.406;10.008;2023-02-13T03:24:21;24.67;;;3.97;;
74347;SDS011;62778;50.406;10.008;2023-02-13T03:25:26;23.63;;;3.90;;
74347;SDS011;62778;50.406;10.008;2023-02-13T03:32:05;27.00;;;5.82;;
74347;SDS011;62778;50.406;10.008;2023-02-13T03:34:08;13.98;;;4.72;;
74347;SDS011;62778;50.406;10.008;2023-02-13T03:35:26;35.67;;;6.72;;
74347;SDS011;62778;50.406;10.008;2023-02-13T03:36:57;19.87;;;6.00;;
74347;SDS011;62778;50.406;10.008;2023-02-13T03:38:38;10.80;;;5.47;;
74347;SDS011;62778;50.406;10.008;2023-02-13T03:41:57;12.10;;;6.53;;
74347;SDS011;62778;50.406;10.008;2023-02-13T03:43:07;14.30;;;6.72;;
74347;SDS011;62778;50.406;10.008;2023-02-13T03:44:13;14.77;;;8.10;;
74347;SDS011;62778;50.406;10.008;2023-02-13T03:45:17;12.95;;;7.05;;
74347;SDS011;62778;50.406;10.008;2023-02-13T03:46:35;12.93;;;6.38;;
74347;SDS011;62778;50.406;10.008;2023-02-13T03:47:33;11.70;;;6.47;;
74347;SDS011;62778;50.406;10.008;2023-02-13T03:48:30;14.02;;;7.30;;
74347;SDS011;62778;50.406;10.008;2023-02-13T03:49:46;11.70;;;6.15;;
74347;SDS011;62778;50.406;10.008;2023-02-13T03:51:01;12.40;;;6.63;;
74347;SDS011;62778;50.406;10.008;2023-02-13T03:52:05;10.80;;;5.38;;
74347;SDS011;62778;50.406;10.008;2023-02-13T03:53:10;9.52;;;4.63;;
74347;SDS011;62778;50.406;10.008;2023-02-13T03:54:55;9.23;;;4.80;;
74347;SDS011;62778;50.406;10.008;2023-02-13T03:55:59;9.50;;;4.00;;
74347;SDS011;62778;50.406;10.008;2023-02-13T03:57:16;8.95;;;4.15;;
74347;SDS011;62778;50.406;10.008;2023-02-13T03:58:34;8.38;;;3.85;;
74347;SDS011;62778;50.406;10.008;2023-02-13T03:59:49;7.68;;;3.83;;
74347;SDS011;62778;50.406;10.008;2023-02-13T04:00:48;7.67;;;3.77;;
74347;SDS011;62778;50.406;10.008;2023-02-13T04:01:47;9.13;;;4.20;;
74347;SDS011;62778;50.406;10.008;2023-02-13T04:04:10;8.20;;;3.90;;
74347;SDS011;62778;50.406;10.008;2023-02-13T04:05:12;8.40;;;3.95;;
74347;SDS011;62778;50.406;10.008;2023-02-13T04:06:12;8.80;;;4.20;;
74347;SDS011;62778;50.406;10.008;2023-02-13T04:07:14;7.97;;;4.17;;
74347;SDS011;62778;50.406;10.008;2023-02-13T04:08:23;9.38;;;4.50;;
74347;SDS011;62778;50.406;10.008;2023-02-13T04:09:18;8.10;;;3.90;;
74347;SDS011;62778;50.406;10.008;2023-02-13T04:10:14;9.37;;;4.60;;
74347;SDS011;62778;50.406;10.008;2023-02-13T04:11:17;11.20;;;5.22;;
74347;SDS011;62778;50.406;10.008;2023-02-13T04:12:18;7.95;;;4.18;;
74347;SDS011;62778;50.406;10.008;2023-02-13T04:13:34;8.52;;;4.90;;
74347;SDS011;62778;50.406;10.008;2023-02-13T04:14:35;8.50;;;4.18;;
74347;SDS011;62778;50.406;10.008;2023-02-13T04:15:35;9.77;;;4.73;;
74347;SDS011;62778;50.406;10.008;2023-02-13T04:16:39;10.23;;;4.82;;
74347;SDS011;62778;50.406;10.008;2023-02-13T04:17:37;8.25;;;4.20;;
74347;SDS011;62778;50.406;10.008;2023-02-13T04:18:35;8.60;;;4.40;;
74347;SDS011;62778;50.406;10.008;2023-02-13T04:19:32;9.90;;;4.50;;
74347;SDS011;62778;50.406;10.008;2023-02-13T04:20:27;10.52;;;4.30;;
74347;SDS011;62778;50.406;10.008;2023-02-13T04:21:23;9.60;;;4.67;;
74347;SDS011;62778;50.406;10.008;2023-02-13T04:22:18;8.87;;;4.40;;
74347;SDS011;62778;50.406;10.008;2023-02-13T04:23:14;9.23;;;4.77;;
74347;SDS011;62778;50.406;10.008;2023-02-13T04:24:09;8.00;;;3.97;;
74347;SDS011;62778;50.406;10.008;2023-02-13T04:25:05;7.73;;;4.00;;
74347;SDS011;62778;50.406;10.008;2023-02-13T04:26:01;9.03;;;4.27;;
74347;SDS011;62778;50.406;10.008;2023-02-13T04:26:58;8.05;;;3.95;;
74347;SDS011;62778;50.406;10.008;2023-02-13T04:27:53;7.40;;;4.00;;
74347;SDS011;62778;50.406;10.008;2023-02-13T04:28:49;7.83;;;4.00;;
74347;SDS011;62778;50.406;10.008;2023-02-13T04:29:44;9.87;;;4.03;;
74347;SDS011;62778;50.406;10.008;2023-02-13T04:30:39;7.57;;;3.90;;
74347;SDS011;62778;50.406;10.008;2023-02-13T04:31:35;8.97;;;4.83;;
74347;SDS011;62778;50.406;10.008;2023-02-13T04:32:30;7.65;;;3.80;;
74347;SDS011;62778;50.406;10.008;2023-02-13T04:33:25;9.00;;;3.93;;
74347;SDS011;62778;50.406;10.008;2023-02-13T04:34:21;8.20;;;3.73;;
74347;SDS011;62778;50.406;10.008;2023-02-13T04:35:16;8.00;;;3.90;;
74347;SDS011;62778;50.406;10.008;2023-02-13T04:36:12;7.57;;;3.90;;
74347;SDS011;62778;50.406;10.008;2023-02-13T04:37:07;8.03;;;4.03;;
74347;SDS011;62778;50.406;10.008;2023-02-13T04:38:20;9.23;;;3.87;;
74347;SDS011;62778;50.406;10.008;2023-02-13T04:39:16;7.70;;;4.20;;
74347;SDS011;62778;50.406;10.008;2023-02-13T04:40:11;8.60;;;4.03;;
74347;SDS011;62778;50.406;10.008;2023-02-13T04:41:07;8.67;;;4.33;;
74347;SDS011;62778;50.406;10.008;2023-02-13T04:42:02;8.15;;;4.00;;
74347;SDS011;62778;50.406;10.008;2023-02-13T04:42:57;7.63;;;3.73;;
74347;SDS011;62778;50.406;10.008;2023-02-13T04:43:53;8.27;;;4.10;;
74347;SDS011;62778;50.406;10.008;2023-02-13T04:44:48;7.43;;;3.17;;
74347;SDS011;62778;50.406;10.008;2023-02-13T04:45:46;7.50;;;3.47;;
74347;SDS011;62778;50.406;10.008;2023-02-13T04:46:43;7.47;;;3.78;;
74347;SDS011;62778;50.406;10.008;2023-02-13T04:47:38;8.53;;;4.73;;
74347;SDS011;62778;50.406;10.008;2023-02-13T04:48:33;9.00;;;4.57;;
74347;SDS011;62778;50.406;10.008;2023-02-13T04:49:29;8.47;;;4.00;;
74347;SDS011;62778;50.406;10.008;2023-02-13T04:50:24;8.57;;;4.60;;
74347;SDS011;62778;50.406;10.008;2023-02-13T04:51:20;8.43;;;4.33;;
74347;SDS011;62778;50.406;10.008;2023-02-13T04:52:15;8.27;;;4.43;;
74347;SDS011;62778;50.406;10.008;2023-02-13T04:53:10;9.02;;;4.88;;
74347;SDS011;62778;50.406;10.008;2023-02-13T04:54:05;7.60;;;3.83;;
74347;SDS011;62778;50.406;10.008;2023-02-13T04:55:01;10.33;;;5.30;;
74347;SDS011;62778;50.406;10.008;2023-02-13T04:55:56;9.63;;;5.57;;
74347;SDS011;62778;50.406;10.008;2023-02-13T04:56:51;8.97;;;5.00;;
74347;SDS011;62778;50.406;10.008;2023-02-13T04:57:47;8.95;;;4.38;;
74347;SDS011;62778;50.406;10.008;2023-02-13T04:58:43;9.77;;;5.00;;
74347;SDS011;62778;50.406;10.008;2023-02-13T04:59:41;8.88;;;5.00;;
74347;SDS011;62778;50.406;10.008;2023-02-13T05:00:36;8.80;;;4.38;;
74347;SDS011;62778;50.406;10.008;2023-02-13T05:01:31;8.07;;;4.20;;
74347;SDS011;62778;50.406;10.008;2023-02-13T05:02:27;8.63;;;4.23;;
74347;SDS011;62778;50.406;10.008;2023-02-13T05:03:22;8.40;;;4.60;;
74347;SDS011;62778;50.406;10.008;2023-02-13T05:04:18;7.47;;;4.10;;
74347;SDS011;62778;50.406;10.008;2023-02-13T05:05:13;7.97;;;4.10;;
74347;SDS011;62778;50.406;10.008;2023-02-13T05:06:08;9.60;;;4.60;;
74347;SDS011;62778;50.406;10.008;2023-02-13T05:07:04;8.20;;;4.40;;
74347;SDS011;62778;50.406;10.008;2023-02-13T05:07:59;7.33;;;4.00;;
74347;SDS011;62778;50.406;10.008;2023-02-13T05:08:55;8.40;;;4.78;;
74347;SDS011;62778;50.406;10.008;2023-02-13T05:09:50;7.97;;;4.33;;
74347;SDS011;62778;50.406;10.008;2023-02-13T05:10:46;7.77;;;3.80;;
74347;SDS011;62778;50.406;10.008;2023-02-13T05:11:42;8.25;;;4.28;;
74347;SDS011;62778;50.406;10.008;2023-02-13T05:12:37;8.70;;;4.30;;
74347;SDS011;62778;50.406;10.008;2023-02-13T05:13:33;7.97;;;3.87;;
74347;SDS011;62778;50.406;10.008;2023-02-13T05:14:28;9.20;;;4.50;;
74347;SDS011;62778;50.406;10.008;2023-02-13T05:15:23;9.90;;;4.80;;
74347;SDS011;62778;50.406;10.008;2023-02-13T05:16:19;8.77;;;4.40;;
74347;SDS011;62778;50.406;10.008;2023-02-13T05:17:14;8.57;;;4.47;;
74347;SDS011;62778;50.406;10.008;2023-02-13T05:18:09;7.30;;;3.90;;
74347;SDS011;62778;50.406;10.008;2023-02-13T05:19:05;7.68;;;3.60;;
74347;SDS011;62778;50.406;10.008;2023-02-13T05:20:00;11.87;;;4.57;;
74347;SDS011;62778;50.406;10.008;2023-02-13T05:20:55;9.77;;;5.00;;
74347;SDS011;62778;50.406;10.008;2023-02-13T05:22:09;10.32;;;5.25;;
74347;SDS011;62778;50.406;10.008;2023-02-13T05:23:24;9.68;;;5.32;;
74347;SDS011;62778;50.406;10.008;2023-02-13T05:24:20;12.05;;;5.15;;
74347;SDS011;62778;50.406;10.008;2023-02-13T05:25:15;11.53;;;5.13;;
74347;SDS011;62778;50.406;10.008;2023-02-13T05:26:10;9.43;;;4.20;;
74347;SDS011;62778;50.406;10.008;2023-02-13T05:27:06;9.82;;;4.50;;
74347;SDS011;62778;50.406;10.008;2023-02-13T05:28:01;8.87;;;4.63;;
74347;SDS011;62778;50.406;10.008;2023-02-13T05:28:57;9.32;;;4.60;;
74347;SDS011;62778;50.406;10.008;2023-02-13T05:30:11;8.67;;;4.30;;
74347;SDS011;62778;50.406;10.008;2023-02-13T05:31:07;8.80;;;4.53;;
74347;SDS011;62778;50.406;10.008;2023-02-13T05:32:02;10.07;;;4.57;;
74347;SDS011;62778;50.406;10.008;2023-02-13T05:32:58;9.27;;;4.60;;
74347;SDS011;62778;50.406;10.008;2023-02-13T05:33:53;10.27;;;4.80;;
74347;SDS011;62778;50.406;10.008;2023-02-13T05:34:48;9.73;;;4.30;;
74347;SDS011;62778;50.406;10.008;2023-02-13T05:35:44;8.03;;;3.90;;
74347;SDS011;62778;50.406;10.008;2023-02-13T05:36:39;8.05;;;3.92;;
74347;SDS011;62778;50.406;10.008;2023-02-13T05:37:34;8.50;;;4.10;;
74347;SDS011;62778;50.406;10.008;2023-02-13T05:38:30;8.17;;;4.00;;
74347;SDS011;62778;50.406;10.008;2023-02-13T05:39:25;9.77;;;4.30;;
74347;SDS011;62778;50.406;10.008;2023-02-13T05:40:21;8.27;;;3.95;;
74347;SDS011;62778;50.406;10.008;2023-02-13T05:41:16;9.40;;;4.13;;
74347;SDS011;62778;50.406;10.008;2023-02-13T05:42:11;9.07;;;4.50;;
74347;SDS011;62778;50.406;10.008;2023-02-13T05:43:07;7.90;;;3.70;;
74347;SDS011;62778;50.406;10.008;2023-02-13T05:44:02;7.57;;;3.45;;
74347;SDS011;62778;50.406;10.008;2023-02-13T05:44:57;8.17;;;3.90;;
74347;SDS011;62778;50.406;10.008;2023-02-13T05:46:05;8.73;;;3.80;;
74347;SDS011;62778;50.406;10.008;2023-02-13T05:47:02;7.28;;;3.28;;
74347;SDS011;62778;50.406;10.008;2023-02-13T05:47:57;6.93;;;3.30;;
74347;SDS011;62778;50.406;10.008;2023-02-13T05:48:53;8.85;;;3.80;;
74347;SDS011;62778;50.406;10.008;2023-02-13T05:49:48;7.60;;;3.63;;
74347;SDS011;62778;50.406;10.008;2023-02-13T05:50:45;8.20;;;3.70;;
74347;SDS011;62778;50.406;10.008;2023-02-13T05:51:43;8.25;;;3.67;;
74347;SDS011;62778;50.406;10.008;2023-02-13T05:52:40;8.20;;;3.80;;
74347;SDS011;62778;50.406;10.008;2023-02-13T05:53:35;10.70;;;3.93;;
74347;SDS011;62778;50.406;10.008;2023-02-13T05:54:31;8.10;;;3.70;;
74347;SDS011;62778;50.406;10.008;2023-02-13T05:55:26;7.35;;;3.33;;
74347;SDS011;62778;50.406;10.008;2023-02-13T05:56:22;7.80;;;3.10;;
74347;SDS011;62778;50.406;10.008;2023-02-13T05:57:17;7.17;;;3.30;;
74347;SDS011;62778;50.406;10.008;2023-02-13T05:58:13;7.75;;;3.22;;
74347;SDS011;62778;50.406;10.008;2023-02-13T05:59:08;7.40;;;3.30;;
74347;SDS011;62778;50.406;10.008;2023-02-13T06:00:04;6.13;;;2.97;;
74347;SDS011;62778;50.406;10.008;2023-02-13T06:01:00;7.10;;;3.10;;
74347;SDS011;62778;50.406;10.008;2023-02-13T06:01:55;6.75;;;3.20;;
74347;SDS011;62778;50.406;10.008;2023-02-13T06:02:50;6.10;;;2.63;;
74347;SDS011;62778;50.406;10.008;2023-02-13T06:03:46;6.43;;;3.10;;
74347;SDS011;62778;50.406;10.008;2023-02-13T06:04:41;6.80;;;3.07;;
74347;SDS011;62778;50.406;10.008;2023-02-13T06:05:37;7.50;;;3.60;;
74347;SDS011;62778;50.406;10.008;2023-02-13T06:06:32;7.53;;;2.93;;
74347;SDS011;62778;50.406;10.008;2023-02-13T06:07:27;7.30;;;3.07;;
74347;SDS011;62778;50.406;10.008;2023-02-13T06:08:23;6.60;;;3.40;;
74347;SDS011;62778;50.406;10.008;2023-02-13T06:09:18;6.80;;;3.30;;
74347;SDS011;62778;50.406;10.008;2023-02-13T06:10:14;7.17;;;3.50;;
74347;SDS011;62778;50.406;10.008;2023-02-13T06:11:09;6.90;;;2.97;;
74347;SDS011;62778;50.406;10.008;2023-02-13T06:12:05;6.05;;;2.65;;
74347;SDS011;62778;50.406;10.008;2023-02-13T06:13:00;5.50;;;2.43;;
74347;SDS011;62778;50.406;10.008;2023-02-13T06:13:56;6.05;;;2.70;;
74347;SDS011;62778;50.406;10.008;2023-02-13T06:14:51;6.37;;;2.77;;
74347;SDS011;62778;50.406;10.008;2023-02-13T06:15:46;6.33;;;2.70;;
74347;SDS011;62778;50.406;10.008;2023-02-13T06:16:42;5.90;;;2.47;;
74347;SDS011;62778;50.406;10.008;2023-02-13T06:17:37;6.63;;;2.57;;
74347;SDS011;62778;50.406;10.008;2023-02-13T06:18:32;6.40;;;2.42;;
74347;SDS011;62778;50.406;10.008;2023-02-13T06:19:28;6.33;;;2.70;;
74347;SDS011;62778;50.406;10.008;2023-02-13T06:20:24;5.50;;;2.03;;
74347;SDS011;62778;50.406;10.008;2023-02-13T06:21:19;5.33;;;2.30;;
74347;SDS011;62778;50.406;10.008;2023-02-13T06:22:14;5.40;;;2.20;;
74347;SDS011;62778;50.406;10.008;2023-02-13T06:23:10;5.78;;;2.30;;
74347;SDS011;62778;50.406;10.008;2023-02-13T06:24:06;6.03;;;2.60;;
74347;SDS011;62778;50.406;10.008;2023-02-13T06:25:02;5.88;;;2.38;;
74347;SDS011;62778;50.406;10.008;2023-02-13T06:26:07;4.90;;;2.00;;
74347;SDS011;62778;50.406;10.008;2023-02-13T06:27:02;5.90;;;2.25;;
74347;SDS011;62778;50.406;10.008;2023-02-13T06:27:58;6.10;;;2.13;;
74347;SDS011;62778;50.406;10.008;2023-02-13T06:28:53;6.00;;;2.40;;